Time;durP1;ratioP1;P1;durP2;ratioP2;P2;SDS_P1;SDS_P2;PMS_P1;PMS_P2;Temp;Humidity;BMP_temperature;BMP_pressure;BME280_temperature;BME280_humidity;BME280_pressure;Samples;Min_cycle;Max_cycle;Signal;HPM_P1;HPM_P2
2021/12/23 00:00:52;;;;;;;18.75;10.77;;;;;;;;;;5012174;28;20050;-64
2021/12/23 00:03:18;;;;;;;19.38;11.60;;;;;;;;;;5012531;28;20046;-64
2021/12/23 00:05:44;;;;;;;15.93;11.07;;;;;;;;;;4994849;28;20512;-64
2021/12/23 00:08:10;;;;;;;16.33;10.48;;;;;;;;;;4994137;28;20057;-64
2021/12/23 00:10:36;;;;;;;18.30;11.07;;;;;;;;;;5012679;28;20034;-64
2021/12/23 00:13:04;;;;;;;18.83;11.52;;;;;;;;;;4994632;28;20042;-64
2021/12/23 00:18:18;;;;;;;21.92;11.50;;;;;;;;;;5012324;28;20050;-64
2021/12/23 00:23:28;;;;;;;24.38;11.70;;;;;;;;;;4994087;28;20133;-64
2021/12/23 00:26:00;;;;;;;18.58;11.48;;;;;;;;;;5011897;28;20057;-64
2021/12/23 00:28:26;;;;;;;17.15;10.40;;;;;;;;;;5012097;28;20053;-64
2021/12/23 00:30:52;;;;;;;21.85;11.63;;;;;;;;;;5011694;28;20046;-64
2021/12/23 00:33:18;;;;;;;20.17;11.60;;;;;;;;;;4994309;28;20053;-65
2021/12/23 00:35:44;;;;;;;17.60;10.90;;;;;;;;;;5012441;28;20053;-65
2021/12/23 00:38:18;;;;;;;18.83;10.52;;;;;;;;;;4993975;28;20516;-65
2021/12/23 00:40:44;;;;;;;18.20;11.10;;;;;;;;;;4994440;28;20041;-65
2021/12/23 00:43:10;;;;;;;14.95;10.35;;;;;;;;;;5012146;28;20049;-65
2021/12/23 00:45:36;;;;;;;19.63;10.65;;;;;;;;;;5011334;28;20120;-65
2021/12/23 00:48:02;;;;;;;17.52;11.43;;;;;;;;;;5011763;28;20603;-65
2021/12/23 00:50:28;;;;;;;17.27;10.60;;;;;;;;;;4994403;28;20469;-65
2021/12/23 00:52:57;;;;;;;21.17;11.35;;;;;;;;;;5011343;28;20378;-65
2021/12/23 00:55:23;;;;;;;20.00;11.15;;;;;;;;;;5012080;28;20037;-65
2021/12/23 00:57:49;;;;;;;19.67;11.38;;;;;;;;;;4993952;28;20041;-65
2021/12/23 01:00:18;;;;;;;19.48;10.75;;;;;;;;;;5011235;28;20046;-65
2021/12/23 01:02:45;;;;;;;18.20;11.52;;;;;;;;;;4994009;28;20485;-65
2021/12/23 01:05:12;;;;;;;19.42;11.18;;;;;;;;;;5011751;28;20076;-65
2021/12/23 01:07:38;;;;;;;18.77;10.73;;;;;;;;;;4993339;28;20703;-65
2021/12/23 01:10:04;;;;;;;20.40;11.65;;;;;;;;;;5011787;28;20038;-65
2021/12/23 01:12:37;;;;;;;18.88;11.65;;;;;;;;;;5011738;28;20042;-65
2021/12/23 01:15:17;;;;;;;19.20;10.70;;;;;;;;;;5010826;28;20052;-65
2021/12/23 01:18:06;;;;;;;22.90;11.65;;;;;;;;;;4993796;28;20443;-64
2021/12/23 01:20:34;;;;;;;21.70;11.77;;;;;;;;;;4993980;28;20058;-64
2021/12/23 01:23:05;;;;;;;18.50;12.02;;;;;;;;;;4993194;28;20068;-64
2021/12/23 01:25:31;;;;;;;19.88;11.70;;;;;;;;;;5011273;28;20037;-65
2021/12/23 01:27:58;;;;;;;21.55;11.75;;;;;;;;;;4993629;28;20428;-65
2021/12/23 01:30:24;;;;;;;16.70;10.65;;;;;;;;;;5010585;28;20054;-65
2021/12/23 01:32:51;;;;;;;24.38;12.55;;;;;;;;;;4993715;28;20042;-65
2021/12/23 01:35:18;;;;;;;20.88;11.35;;;;;;;;;;5011692;28;20148;-65
2021/12/23 01:37:44;;;;;;;23.38;13.23;;;;;;;;;;5010996;28;20042;-65
2021/12/23 01:40:12;;;;;;;18.88;11.73;;;;;;;;;;5011551;28;20060;-65
2021/12/23 01:42:38;;;;;;;24.33;12.93;;;;;;;;;;4993533;28;20041;-65
2021/12/23 01:45:09;;;;;;;20.95;12.00;;;;;;;;;;4993288;28;20077;-65
2021/12/23 01:47:35;;;;;;;18.88;11.93;;;;;;;;;;4977381;28;20058;-65
2021/12/23 01:50:03;;;;;;;18.30;11.02;;;;;;;;;;4993715;28;20151;-65
2021/12/23 01:52:29;;;;;;;22.02;12.68;;;;;;;;;;5011998;28;20045;-64
2021/12/23 01:54:55;;;;;;;21.30;12.95;;;;;;;;;;5015300;28;20041;-64
2021/12/23 01:57:21;;;;;;;23.05;12.50;;;;;;;;;;5015141;28;20042;-64
2021/12/23 01:59:47;;;;;;;19.05;12.07;;;;;;;;;;5014314;28;20385;-64
2021/12/23 02:02:13;;;;;;;23.33;11.85;;;;;;;;;;4997121;28;20092;-64
2021/12/23 02:04:39;;;;;;;20.10;11.68;;;;;;;;;;5014948;28;20461;-64
2021/12/23 02:07:05;;;;;;;19.10;11.75;;;;;;;;;;5013927;28;20083;-64
2021/12/23 02:09:31;;;;;;;19.77;11.30;;;;;;;;;;5014598;28;20038;-64
2021/12/23 02:11:59;;;;;;;20.17;11.18;;;;;;;;;;5014450;28;20052;-64
2021/12/23 02:14:25;;;;;;;20.67;12.80;;;;;;;;;;4980391;28;20117;-64
2021/12/23 02:16:51;;;;;;;18.85;11.68;;;;;;;;;;5014895;28;20455;-64
2021/12/23 02:19:18;;;;;;;22.35;12.25;;;;;;;;;;5014783;28;20041;-64
2021/12/23 02:21:45;;;;;;;21.67;12.93;;;;;;;;;;5013712;28;20125;-64
2021/12/23 02:24:11;;;;;;;21.45;11.48;;;;;;;;;;5014121;28;20125;-64
2021/12/23 02:26:42;;;;;;;21.95;12.38;;;;;;;;;;4996391;28;20430;-65
2021/12/23 02:29:08;;;;;;;22.85;12.35;;;;;;;;;;4995923;28;20147;-65
2021/12/23 02:31:34;;;;;;;22.90;13.10;;;;;;;;;;5014310;28;20643;-65
2021/12/23 02:34:00;;;;;;;23.35;13.02;;;;;;;;;;5014187;28;20046;-65
2021/12/23 02:36:26;;;;;;;21.67;12.80;;;;;;;;;;5013862;28;20038;-65
2021/12/23 02:38:53;;;;;;;23.33;12.80;;;;;;;;;;5014360;28;20038;-64
2021/12/23 02:41:19;;;;;;;21.73;12.25;;;;;;;;;;5014364;28;20092;-64
2021/12/23 02:43:45;;;;;;;21.30;12.50;;;;;;;;;;5013495;28;20057;-64
2021/12/23 02:46:13;;;;;;;24.42;12.93;;;;;;;;;;4996582;28;20413;-64
2021/12/23 02:48:39;;;;;;;25.10;12.77;;;;;;;;;;5013762;28;20040;-64
2021/12/23 02:51:07;;;;;;;24.23;13.15;;;;;;;;;;5013589;28;20082;-64
2021/12/23 02:53:33;;;;;;;20.85;11.90;;;;;;;;;;5014059;28;20041;-64
2021/12/23 02:56:00;;;;;;;21.02;12.73;;;;;;;;;;5014148;28;20121;-64
2021/12/23 02:58:26;;;;;;;24.33;12.30;;;;;;;;;;5013259;28;20092;-64
2021/12/23 03:00:53;;;;;;;23.00;13.32;;;;;;;;;;5013864;28;20038;-64
2021/12/23 03:03:20;;;;;;;22.45;13.02;;;;;;;;;;5013016;28;20038;-64
2021/12/23 03:05:54;;;;;;;20.55;12.68;;;;;;;;;;4995022;28;20053;-64
2021/12/23 03:08:29;;;;;;;23.25;13.15;;;;;;;;;;5013785;28;20038;-64
2021/12/23 03:10:55;;;;;;;25.23;13.25;;;;;;;;;;5013720;28;20477;-65
2021/12/23 03:13:21;;;;;;;18.80;11.73;;;;;;;;;;4995161;28;20089;-65
2021/12/23 03:15:47;;;;;;;26.17;12.45;;;;;;;;;;4996044;28;20050;-65
2021/12/23 03:18:13;;;;;;;23.52;13.10;;;;;;;;;;5013703;28;20069;-65
2021/12/23 03:20:39;;;;;;;24.15;12.68;;;;;;;;;;5013007;28;20088;-64
2021/12/23 03:23:05;;;;;;;25.60;13.95;;;;;;;;;;5013480;28;20456;-65
2021/12/23 03:25:32;;;;;;;25.15;12.82;;;;;;;;;;4979194;28;20045;-64
2021/12/23 03:27:58;;;;;;;23.63;12.25;;;;;;;;;;5012481;28;20042;-64
2021/12/23 03:30:24;;;;;;;22.85;12.93;;;;;;;;;;5013117;28;20088;-64
2021/12/23 03:32:50;;;;;;;22.75;12.68;;;;;;;;;;4995459;28;20461;-64
2021/12/23 03:35:17;;;;;;;25.42;12.73;;;;;;;;;;5012625;28;20044;-64
2021/12/23 03:37:43;;;;;;;24.38;13.18;;;;;;;;;;4995452;28;20081;-64
2021/12/23 03:40:09;;;;;;;21.83;12.55;;;;;;;;;;5013157;28;20100;-64
2021/12/23 03:42:35;;;;;;;24.92;13.82;;;;;;;;;;4994493;28;20477;-64
2021/12/23 03:45:01;;;;;;;25.17;13.57;;;;;;;;;;5013216;28;20073;-64
2021/12/23 03:47:27;;;;;;;22.95;13.27;;;;;;;;;;5013000;28;20037;-64
2021/12/23 03:49:53;;;;;;;24.73;13.52;;;;;;;;;;5012496;28;20488;-64
2021/12/23 03:52:19;;;;;;;25.00;13.07;;;;;;;;;;5012941;28;20033;-64
2021/12/23 03:54:46;;;;;;;24.77;13.40;;;;;;;;;;4995147;28;20046;-64
2021/12/23 03:57:12;;;;;;;22.95;12.80;;;;;;;;;;4994404;28;20042;-65
2021/12/23 03:59:38;;;;;;;26.85;13.23;;;;;;;;;;5012746;28;20069;-65
2021/12/23 04:02:04;;;;;;;22.75;13.63;;;;;;;;;;5012770;28;20068;-65
2021/12/23 04:04:30;;;;;;;23.98;13.85;;;;;;;;;;5011894;28;20052;-65
2021/12/23 04:06:57;;;;;;;26.77;13.77;;;;;;;;;;5012530;28;20038;-65
2021/12/23 04:09:23;;;;;;;23.42;13.23;;;;;;;;;;4995136;28;20050;-65
2021/12/23 04:11:49;;;;;;;25.48;13.63;;;;;;;;;;4994570;28;20041;-65
2021/12/23 04:14:15;;;;;;;22.85;13.73;;;;;;;;;;5012494;28;20493;-65
2021/12/23 04:16:42;;;;;;;24.02;13.32;;;;;;;;;;4994321;28;20389;-65
2021/12/23 04:19:10;;;;;;;21.42;12.45;;;;;;;;;;5012158;28;20046;-65
2021/12/23 04:21:37;;;;;;;23.92;12.93;;;;;;;;;;4994274;28;20064;-65
2021/12/23 04:24:03;;;;;;;24.27;13.05;;;;;;;;;;5012368;28;20041;-65
2021/12/23 04:26:29;;;;;;;24.40;13.40;;;;;;;;;;4977977;28;20120;-65
2021/12/23 04:28:55;;;;;;;23.38;13.63;;;;;;;;;;4993795;28;20058;-65
2021/12/23 04:31:22;;;;;;;28.05;14.43;;;;;;;;;;5012332;28;20481;-65
2021/12/23 04:33:49;;;;;;;23.42;13.23;;;;;;;;;;5012312;28;20050;-65
2021/12/23 04:36:15;;;;;;;27.10;13.73;;;;;;;;;;5011647;28;20037;-65
2021/12/23 04:38:42;;;;;;;26.85;13.55;;;;;;;;;;4994583;28;20038;-65
2021/12/23 04:41:09;;;;;;;26.77;14.52;;;;;;;;;;5012340;28;20042;-65
2021/12/23 04:43:35;;;;;;;23.65;13.60;;;;;;;;;;5011415;28;20096;-65
2021/12/23 04:46:01;;;;;;;25.95;14.23;;;;;;;;;;5011966;28;20616;-65
2021/12/23 04:48:28;;;;;;;24.70;13.32;;;;;;;;;;5011820;28;20480;-65
2021/12/23 04:50:54;;;;;;;25.70;14.20;;;;;;;;;;4993889;28;20052;-65
2021/12/23 04:53:21;;;;;;;27.70;13.82;;;;;;;;;;5011828;28;20049;-65
2021/12/23 04:55:47;;;;;;;26.02;14.10;;;;;;;;;;4994447;28;20048;-65
2021/12/23 04:58:13;;;;;;;26.75;13.68;;;;;;;;;;4993476;28;20103;-64
2021/12/23 05:00:39;;;;;;;26.90;13.75;;;;;;;;;;5011593;28;20042;-64
2021/12/23 05:03:05;;;;;;;26.30;14.35;;;;;;;;;;5011853;28;20369;-64
2021/12/23 05:05:31;;;;;;;25.38;14.20;;;;;;;;;;5011225;28;20155;-64
2021/12/23 05:07:57;;;;;;;28.70;14.25;;;;;;;;;;4993939;28;20077;-64
2021/12/23 05:10:25;;;;;;;26.52;14.57;;;;;;;;;;5012102;28;20358;-64
2021/12/23 05:12:52;;;;;;;26.77;14.48;;;;;;;;;;4993220;28;20121;-64
2021/12/23 05:15:20;;;;;;;30.95;14.50;;;;;;;;;;5011849;28;20046;-64
2021/12/23 05:17:46;;;;;;;24.90;13.68;;;;;;;;;;4993984;28;20099;-64
2021/12/23 05:20:13;;;;;;;24.38;14.20;;;;;;;;;;4993278;28;20125;-64
2021/12/23 05:22:40;;;;;;;25.17;13.70;;;;;;;;;;4993703;28;20053;-64
2021/12/23 05:25:07;;;;;;;26.58;12.98;;;;;;;;;;4993880;28;20049;-64
2021/12/23 05:27:33;;;;;;;23.60;13.93;;;;;;;;;;4994293;28;20153;-64
2021/12/23 05:29:59;;;;;;;28.33;15.75;;;;;;;;;;4997605;28;20050;-64
2021/12/23 05:32:25;;;;;;;24.88;15.10;;;;;;;;;;5015587;28;20156;-64
2021/12/23 05:34:51;;;;;;;24.00;13.50;;;;;;;;;;5014880;28;20054;-64
2021/12/23 05:37:17;;;;;;;29.15;14.85;;;;;;;;;;4997935;28;20060;-64
2021/12/23 05:39:43;;;;;;;27.35;14.85;;;;;;;;;;5015544;28;20038;-64
2021/12/23 05:42:09;;;;;;;29.42;15.13;;;;;;;;;;5014637;28;20049;-64
2021/12/23 05:44:35;;;;;;;30.50;15.52;;;;;;;;;;5015370;28;20049;-64
2021/12/23 05:47:02;;;;;;;25.40;14.05;;;;;;;;;;4997399;28;20401;-64
2021/12/23 05:49:29;;;;;;;30.75;14.38;;;;;;;;;;5014465;28;20698;-64
2021/12/23 05:51:55;;;;;;;26.48;14.15;;;;;;;;;;4997316;28;20463;-64
2021/12/23 05:54:22;;;;;;;24.27;14.27;;;;;;;;;;5015326;28;20091;-64
2021/12/23 05:56:49;;;;;;;28.20;15.20;;;;;;;;;;4996856;28;20489;-64
2021/12/23 05:59:15;;;;;;;26.60;15.23;;;;;;;;;;4997136;28;20084;-64
2021/12/23 06:01:41;;;;;;;28.17;15.38;;;;;;;;;;5015051;28;20617;-64
2021/12/23 06:04:07;;;;;;;29.42;15.70;;;;;;;;;;4996498;28;20085;-64
2021/12/23 06:06:34;;;;;;;26.60;15.88;;;;;;;;;;4996724;28;20122;-64
2021/12/23 06:09:00;;;;;;;27.13;14.80;;;;;;;;;;4997374;28;20064;-64
2021/12/23 06:11:26;;;;;;;28.27;15.85;;;;;;;;;;5013935;28;20570;-64
2021/12/23 06:13:52;;;;;;;29.73;14.52;;;;;;;;;;5014699;28;20065;-64
2021/12/23 06:16:18;;;;;;;26.17;15.18;;;;;;;;;;5014782;28;20117;-64
2021/12/23 06:18:44;;;;;;;25.08;14.68;;;;;;;;;;5014269;28;20045;-64
2021/12/23 06:21:10;;;;;;;29.00;15.13;;;;;;;;;;5014753;28;20038;-64
2021/12/23 06:23:36;;;;;;;27.13;15.43;;;;;;;;;;4996969;28;20382;-64
2021/12/23 06:26:02;;;;;;;27.50;14.82;;;;;;;;;;5013656;28;20553;-64
2021/12/23 06:28:28;;;;;;;25.00;14.93;;;;;;;;;;4996709;28;20108;-64
2021/12/23 06:30:54;;;;;;;26.73;15.32;;;;;;;;;;5014313;28;20049;-64
2021/12/23 06:33:21;;;;;;;26.23;14.77;;;;;;;;;;5013445;28;20053;-64
2021/12/23 06:35:47;;;;;;;30.27;15.43;;;;;;;;;;5014331;28;20439;-64
2021/12/23 06:38:14;;;;;;;29.92;14.80;;;;;;;;;;5014144;28;20038;-64
2021/12/23 06:40:41;;;;;;;26.48;15.15;;;;;;;;;;4995924;28;20116;-64
2021/12/23 06:43:08;;;;;;;26.83;15.60;;;;;;;;;;4996401;28;20037;-64
2021/12/23 06:45:34;;;;;;;28.42;15.77;;;;;;;;;;5014239;28;20145;-64
2021/12/23 06:48:00;;;;;;;33.67;16.42;;;;;;;;;;4995789;28;20046;-64
2021/12/23 06:50:26;;;;;;;27.60;15.43;;;;;;;;;;5013413;28;20496;-64
2021/12/23 06:52:52;;;;;;;26.35;14.70;;;;;;;;;;4996058;28;20049;-65
2021/12/23 06:55:19;;;;;;;29.75;16.15;;;;;;;;;;4995041;28;20034;-65
2021/12/23 06:57:46;;;;;;;30.17;16.10;;;;;;;;;;5013394;28;20095;-65
2021/12/23 07:00:17;;;;;;;32.28;16.95;;;;;;;;;;5013332;28;20496;-65
2021/12/23 07:02:44;;;;;;;30.13;16.55;;;;;;;;;;4995206;28;20472;-65
2021/12/23 07:05:10;;;;;;;29.40;16.27;;;;;;;;;;5013219;28;20041;-65
2021/12/23 07:07:57;;;;;;;31.48;16.98;;;;;;;;;;4995437;28;20366;-65
2021/12/23 07:10:27;;;;;;;30.35;16.50;;;;;;;;;;5012685;28;20103;-64
2021/12/23 07:12:54;;;;;;;32.53;16.58;;;;;;;;;;5013299;28;20062;-64
2021/12/23 07:15:20;;;;;;;28.98;16.73;;;;;;;;;;4995379;28;20050;-64
2021/12/23 07:17:47;;;;;;;34.22;17.50;;;;;;;;;;4997909;28;20045;-64
2021/12/23 07:20:13;;;;;;;29.83;16.17;;;;;;;;;;5012930;28;20049;-64
2021/12/23 07:22:39;;;;;;;29.92;16.88;;;;;;;;;;5012414;28;20034;-63
2021/12/23 07:25:05;;;;;;;33.40;17.60;;;;;;;;;;5011773;28;20049;-63
2021/12/23 07:27:31;;;;;;;31.17;16.60;;;;;;;;;;5012963;28;20046;-62
2021/12/23 07:29:58;;;;;;;34.15;17.02;;;;;;;;;;5011824;28;20060;-62
2021/12/23 07:32:24;;;;;;;35.92;17.52;;;;;;;;;;5012065;28;20123;-62
2021/12/23 07:34:50;;;;;;;31.85;17.63;;;;;;;;;;5012740;28;20679;-62
2021/12/23 07:37:16;;;;;;;32.05;16.50;;;;;;;;;;5012678;28;20061;-63
2021/12/23 07:39:42;;;;;;;31.35;17.30;;;;;;;;;;4994789;28;20076;-63
2021/12/23 07:42:14;;;;;;;33.70;16.63;;;;;;;;;;5012181;28;20484;-62
2021/12/23 07:44:40;;;;;;;33.88;18.38;;;;;;;;;;5012555;28;20108;-62
2021/12/23 07:47:06;;;;;;;32.75;17.25;;;;;;;;;;5011757;28;20397;-62
2021/12/23 07:49:32;;;;;;;31.02;16.92;;;;;;;;;;5011717;28;20038;-62
2021/12/23 07:51:58;;;;;;;35.28;17.17;;;;;;;;;;5011653;28;20042;-63
2021/12/23 07:54:24;;;;;;;30.08;16.98;;;;;;;;;;4998663;28;20042;-63
2021/12/23 07:56:51;;;;;;;32.45;18.20;;;;;;;;;;5011696;28;20119;-60
2021/12/23 07:59:17;;;;;;;33.53;17.17;;;;;;;;;;5011910;28;20108;-58
2021/12/23 08:01:43;;;;;;;28.80;16.48;;;;;;;;;;5008094;28;20033;-59
2021/12/23 08:04:09;;;;;;;35.88;18.13;;;;;;;;;;5010923;28;20037;-59
2021/12/23 08:06:35;;;;;;;31.23;17.42;;;;;;;;;;5010122;28;20532;-59
2021/12/23 08:09:01;;;;;;;35.30;17.80;;;;;;;;;;5011138;28;20077;-59
2021/12/23 08:11:27;;;;;;;36.33;18.67;;;;;;;;;;5011323;28;20034;-59
2021/12/23 08:13:53;;;;;;;34.80;18.27;;;;;;;;;;5010001;28;20048;-58
2021/12/23 08:16:19;;;;;;;34.47;18.65;;;;;;;;;;5010591;28;20156;-58
2021/12/23 08:18:45;;;;;;;33.75;18.10;;;;;;;;;;5010446;28;20049;-58
2021/12/23 08:21:11;;;;;;;34.33;17.88;;;;;;;;;;5011451;28;20499;-58
2021/12/23 08:23:37;;;;;;;44.45;17.70;;;;;;;;;;5010174;28;20400;-59
2021/12/23 08:26:10;;;;;;;32.55;17.75;;;;;;;;;;5010915;28;20037;-58
2021/12/23 08:28:36;;;;;;;33.78;18.23;;;;;;;;;;5010340;28;20125;-58
2021/12/23 08:31:02;;;;;;;36.13;19.65;;;;;;;;;;5010581;28;20049;-59
2021/12/23 08:33:29;;;;;;;34.50;18.70;;;;;;;;;;5011198;28;20038;-58
2021/12/23 08:35:55;;;;;;;38.58;17.88;;;;;;;;;;5011212;28;20049;-57
2021/12/23 08:38:21;;;;;;;34.58;19.20;;;;;;;;;;5010128;28;20050;-58
2021/12/23 08:40:47;;;;;;;37.95;20.05;;;;;;;;;;5011288;28;20132;-59
2021/12/23 08:43:13;;;;;;;34.05;18.30;;;;;;;;;;5011503;28;20081;-58
2021/12/23 08:45:39;;;;;;;36.03;18.45;;;;;;;;;;5011057;28;20053;-58
2021/12/23 08:48:06;;;;;;;36.00;19.05;;;;;;;;;;5011021;28;20131;-59
2021/12/23 08:50:32;;;;;;;39.90;20.05;;;;;;;;;;5010946;28;20041;-59
2021/12/23 08:52:58;;;;;;;41.30;20.52;;;;;;;;;;5010993;28;20073;-58
2021/12/23 08:55:27;;;;;;;41.08;19.92;;;;;;;;;;5011049;28;20061;-59
2021/12/23 08:57:54;;;;;;;40.55;20.27;;;;;;;;;;5010814;28;20111;-59
2021/12/23 09:00:20;;;;;;;40.28;20.52;;;;;;;;;;5011273;28;20512;-58
2021/12/23 09:02:48;;;;;;;42.30;21.58;;;;;;;;;;5010527;28;20034;-58
2021/12/23 09:05:15;;;;;;;43.08;20.92;;;;;;;;;;5011056;28;20045;-58
2021/12/23 09:07:41;;;;;;;45.67;21.05;;;;;;;;;;5011009;28;20788;-58
2021/12/23 09:10:08;;;;;;;47.38;21.48;;;;;;;;;;5010348;28;20042;-58
2021/12/23 09:12:34;;;;;;;49.67;21.25;;;;;;;;;;5011066;28;20078;-59
2021/12/23 09:15:00;;;;;;;47.22;22.50;;;;;;;;;;5011231;28;20042;-58
2021/12/23 09:17:26;;;;;;;45.42;22.15;;;;;;;;;;5010169;28;20044;-58
2021/12/23 09:19:52;;;;;;;50.55;23.80;;;;;;;;;;5010941;28;20046;-57
2021/12/23 09:22:18;;;;;;;49.90;22.65;;;;;;;;;;5010481;28;20121;-58
2021/12/23 09:24:47;;;;;;;48.00;21.70;;;;;;;;;;5010342;28;20084;-58
2021/12/23 09:34:55;;;;;;;52.00;23.60;;;;;;;;;;5010903;28;20096;-58
2021/12/23 09:37:22;;;;;;;49.35;23.50;;;;;;;;;;5010633;28;20048;-61
2021/12/23 09:39:55;;;;;;;48.83;24.35;;;;;;;;;;5010523;28;20401;-61
2021/12/23 09:42:32;;;;;;;51.25;23.98;;;;;;;;;;5010628;28;20639;-61
2021/12/23 09:45:05;;;;;;;55.92;26.17;;;;;;;;;;5009948;28;20050;-61
2021/12/23 09:47:32;;;;;;;53.28;24.45;;;;;;;;;;5010911;28;20093;-61
2021/12/23 09:49:59;;;;;;;53.17;25.98;;;;;;;;;;5010318;28;20041;-61
2021/12/23 09:52:28;;;;;;;52.65;25.10;;;;;;;;;;5009943;28;20075;-61
2021/12/23 09:54:55;;;;;;;54.42;24.92;;;;;;;;;;5010655;28;20743;-60
2021/12/23 09:57:22;;;;;;;55.17;25.90;;;;;;;;;;5010592;28;20129;-61
2021/12/23 09:59:48;;;;;;;59.60;24.98;;;;;;;;;;5010256;28;20076;-61
2021/12/23 10:02:15;;;;;;;56.97;26.95;;;;;;;;;;5010513;28;20042;-61
2021/12/23 10:04:41;;;;;;;58.95;26.65;;;;;;;;;;5010838;28;20382;-60
2021/12/23 10:07:07;;;;;;;55.45;25.75;;;;;;;;;;5009671;28;20457;-58
2021/12/23 10:09:58;;;;;;;55.70;25.73;;;;;;;;;;5010743;28;20042;-59
2021/12/23 10:13:03;;;;;;;57.63;25.85;;;;;;;;;;5010365;28;20038;-59
2021/12/23 10:32:11;;;;;;;56.25;27.02;;;;;;;;;;5011716;28;20052;-58
2021/12/23 10:37:16;;;;;;;60.95;26.13;;;;;;;;;;5011597;28;20127;-56
2021/12/23 10:39:48;;;;;;;60.58;26.42;;;;;;;;;;5011193;28;20443;-56
2021/12/23 10:42:16;;;;;;;58.78;25.55;;;;;;;;;;5012805;28;20048;-59
2021/12/23 10:44:48;;;;;;;59.00;26.90;;;;;;;;;;5012226;28;20060;-58
2021/12/23 10:47:34;;;;;;;63.78;27.95;;;;;;;;;;4993684;28;20157;-57
2021/12/23 10:50:20;;;;;;;57.65;26.50;;;;;;;;;;5014164;28;20056;-55
2021/12/23 10:52:53;;;;;;;66.00;29.40;;;;;;;;;;5010471;28;20121;-58
2021/12/23 10:58:07;;;;;;;59.28;25.85;;;;;;;;;;5011514;28;20057;-56
2021/12/23 11:00:34;;;;;;;54.97;25.60;;;;;;;;;;5012427;28;20084;-57
2021/12/23 11:03:10;;;;;;;57.83;26.85;;;;;;;;;;5013226;28;20037;-57
2021/12/23 11:05:42;;;;;;;60.30;26.90;;;;;;;;;;5011803;28;20049;-58
2021/12/23 11:11:24;;;;;;;60.63;27.38;;;;;;;;;;5012383;28;20045;-59
2021/12/23 11:30:41;;;;;;;64.70;29.77;;;;;;;;;;5008111;28;20054;-59
2021/12/23 11:35:50;;;;;;;63.88;28.40;;;;;;;;;;5011488;28;20053;-60
2021/12/23 11:41:53;;;;;;;59.28;25.58;;;;;;;;;;4971021;28;20049;-60
2021/12/23 11:43:59;;;;;;;69.05;29.52;;;;;;;;;;4979678;28;20558;-59
2021/12/23 11:46:33;;;;;;;65.88;28.25;;;;;;;;;;5010423;28;20041;-60
2021/12/23 11:49:02;;;;;;;73.15;29.98;;;;;;;;;;5013740;28;20052;-61
2021/12/23 11:51:42;;;;;;;65.20;28.42;;;;;;;;;;5010003;28;20044;-59
2021/12/23 11:54:09;;;;;;;63.88;27.55;;;;;;;;;;5010656;28;20408;-60
2021/12/23 11:56:39;;;;;;;66.85;28.50;;;;;;;;;;5011350;28;20103;-59
2021/12/23 11:59:05;;;;;;;65.35;28.10;;;;;;;;;;5010749;28;20053;-60
2021/12/23 12:01:40;;;;;;;67.20;29.17;;;;;;;;;;5010989;28;20053;-61
2021/12/23 12:04:07;;;;;;;67.43;27.60;;;;;;;;;;5003228;28;20128;-62
2021/12/23 12:06:37;;;;;;;59.63;27.17;;;;;;;;;;5017914;28;20475;-61
2021/12/23 12:09:15;;;;;;;61.83;27.35;;;;;;;;;;5012872;28;20034;-61
2021/12/23 12:11:42;;;;;;;68.13;27.65;;;;;;;;;;5010472;28;20095;-62
2021/12/23 12:14:26;;;;;;;60.90;28.02;;;;;;;;;;5009522;28;20041;-62
2021/12/23 12:16:53;;;;;;;63.78;27.42;;;;;;;;;;5011486;28;20038;-60
2021/12/23 12:19:38;;;;;;;65.47;27.20;;;;;;;;;;5009737;28;20049;-61
2021/12/23 12:22:04;;;;;;;66.78;28.92;;;;;;;;;;5009975;28;20129;-62
2021/12/23 12:24:44;;;;;;;59.80;26.88;;;;;;;;;;4997047;28;20045;-62
2021/12/23 12:27:10;;;;;;;63.00;26.33;;;;;;;;;;5009705;28;20041;-61
2021/12/23 12:29:39;;;;;;;62.05;27.23;;;;;;;;;;5009801;28;20054;-61
2021/12/23 12:32:05;;;;;;;67.57;29.48;;;;;;;;;;5010120;28;20053;-61
2021/12/23 12:34:36;;;;;;;67.45;27.80;;;;;;;;;;5010979;28;20034;-62
2021/12/23 12:37:04;;;;;;;66.18;27.83;;;;;;;;;;5008323;28;20054;-60
2021/12/23 12:39:33;;;;;;;65.57;28.33;;;;;;;;;;5010582;28;20057;-61
2021/12/23 12:42:05;;;;;;;71.95;28.63;;;;;;;;;;5009791;28;20400;-61
2021/12/23 12:44:41;;;;;;;70.70;31.13;;;;;;;;;;4992825;28;20097;-61
2021/12/23 12:47:13;;;;;;;61.25;26.08;;;;;;;;;;5010483;28;20083;-61
2021/12/23 12:49:41;;;;;;;62.03;27.00;;;;;;;;;;5010467;28;20042;-60
2021/12/23 12:52:25;;;;;;;60.75;26.63;;;;;;;;;;5008402;28;20077;-62
2021/12/23 12:54:56;;;;;;;61.35;26.92;;;;;;;;;;5010815;28;20053;-62
2021/12/23 12:57:24;;;;;;;63.53;27.67;;;;;;;;;;5010037;28;20103;-61
2021/12/23 12:59:50;;;;;;;61.45;26.65;;;;;;;;;;5010662;28;20137;-61
2021/12/23 13:02:25;;;;;;;61.85;26.88;;;;;;;;;;5010782;28;20037;-61
2021/12/23 13:04:57;;;;;;;58.03;26.70;;;;;;;;;;5009937;28;20042;-59
2021/12/23 13:07:36;;;;;;;58.75;25.60;;;;;;;;;;5009960;28;20050;-61
2021/12/23 13:10:15;;;;;;;60.55;26.40;;;;;;;;;;5010291;28;20091;-62
2021/12/23 13:12:43;;;;;;;60.53;27.15;;;;;;;;;;5010214;28;20069;-61
2021/12/23 13:15:17;;;;;;;61.60;27.15;;;;;;;;;;5009941;28;20042;-59
2021/12/23 13:18:02;;;;;;;66.07;28.45;;;;;;;;;;5009215;28;20045;-60
2021/12/23 13:20:32;;;;;;;62.00;24.98;;;;;;;;;;5010229;28;20125;-61
2021/12/23 13:23:06;;;;;;;61.13;25.75;;;;;;;;;;5009511;28;20117;-62
2021/12/23 13:25:33;;;;;;;61.63;27.55;;;;;;;;;;5009734;28;20042;-62
2021/12/23 13:28:06;;;;;;;61.42;27.20;;;;;;;;;;5008706;28;20081;-62
2021/12/23 13:30:33;;;;;;;58.10;25.33;;;;;;;;;;5008223;28;20050;-61
2021/12/23 13:33:01;;;;;;;63.08;26.35;;;;;;;;;;5013054;28;20033;-61
2021/12/23 13:35:28;;;;;;;63.85;28.65;;;;;;;;;;5008887;28;20042;-61
2021/12/23 13:37:54;;;;;;;64.15;27.25;;;;;;;;;;5009753;28;20476;-61
2021/12/23 13:40:30;;;;;;;61.28;27.25;;;;;;;;;;5008577;28;20141;-61
2021/12/23 13:42:56;;;;;;;59.88;25.80;;;;;;;;;;5009951;28;20165;-62
2021/12/23 13:45:22;;;;;;;67.28;28.33;;;;;;;;;;5009388;28;20052;-60
2021/12/23 13:47:56;;;;;;;62.13;26.05;;;;;;;;;;5008509;28;20120;-61
2021/12/23 13:50:23;;;;;;;60.22;26.35;;;;;;;;;;5010703;28;20049;-60
2021/12/23 13:52:50;;;;;;;58.80;25.52;;;;;;;;;;5010648;28;20650;-61
2021/12/23 13:55:21;;;;;;;63.30;27.00;;;;;;;;;;5013657;28;20612;-61
2021/12/23 13:57:51;;;;;;;64.90;28.27;;;;;;;;;;5011466;28;20038;-61
2021/12/23 14:00:17;;;;;;;66.53;28.40;;;;;;;;;;5014100;28;20507;-60
2021/12/23 14:02:43;;;;;;;61.22;27.17;;;;;;;;;;5012511;28;20668;-59
2021/12/23 14:05:11;;;;;;;60.03;25.60;;;;;;;;;;5013340;28;20481;-61
2021/12/23 14:07:38;;;;;;;64.65;27.27;;;;;;;;;;5013095;28;20113;-61
2021/12/23 14:10:09;;;;;;;62.95;27.23;;;;;;;;;;5009893;28;20056;-61
2021/12/23 14:12:50;;;;;;;62.03;27.48;;;;;;;;;;5013118;28;20037;-57
2021/12/23 14:15:19;;;;;;;64.47;27.27;;;;;;;;;;5014764;28;20530;-58
2021/12/23 14:17:46;;;;;;;65.32;27.08;;;;;;;;;;5013087;28;20429;-57
2021/12/23 14:23:13;;;;;;;67.13;28.20;;;;;;;;;;5010199;28;20049;-60
2021/12/23 14:25:47;;;;;;;66.95;27.48;;;;;;;;;;5011944;28;20447;-60
2021/12/23 14:28:14;;;;;;;62.67;28.33;;;;;;;;;;5009770;28;20062;-60
2021/12/23 14:30:48;;;;;;;62.28;28.80;;;;;;;;;;5012325;28;21689;-61
2021/12/23 14:33:16;;;;;;;57.50;25.67;;;;;;;;;;5015288;28;20046;-60
2021/12/23 14:35:51;;;;;;;70.50;28.65;;;;;;;;;;5013560;28;20042;-60
2021/12/23 14:38:23;;;;;;;59.25;26.77;;;;;;;;;;5012540;28;20672;-60
2021/12/23 14:40:49;;;;;;;;;;;;;;;;;;5013744;28;20157;-59
2021/12/23 14:43:15;;;;;;;65.13;27.15;;;;;;;;;;5011299;28;19968;-60
2021/12/23 14:45:42;;;;;;;67.47;27.65;;;;;;;;;;5013326;28;20072;-60
2021/12/23 14:48:13;;;;;;;63.22;26.75;;;;;;;;;;5012716;28;20096;-59
2021/12/23 14:50:51;;;;;;;66.03;28.88;;;;;;;;;;5012744;28;20062;-59
2021/12/23 14:53:18;;;;;;;63.38;27.02;;;;;;;;;;4995315;28;20050;-58
2021/12/23 14:55:52;;;;;;;66.82;28.85;;;;;;;;;;5011682;28;20404;-58
2021/12/23 14:58:18;;;;;;;66.68;29.52;;;;;;;;;;5013008;28;20042;-58
2021/12/23 15:00:46;;;;;;;61.95;28.20;;;;;;;;;;5012105;28;20061;-58
2021/12/23 15:03:13;;;;;;;69.43;29.50;;;;;;;;;;5012083;28;20515;-60
2021/12/23 15:05:41;;;;;;;66.88;28.67;;;;;;;;;;5013088;28;20042;-57
2021/12/23 15:08:08;;;;;;;58.60;26.00;;;;;;;;;;5012583;28;20049;-59
2021/12/23 15:10:36;;;;;;;61.63;26.90;;;;;;;;;;5010971;28;20524;-56
2021/12/23 15:13:23;;;;;;;62.75;27.50;;;;;;;;;;5011866;28;20496;-59
2021/12/23 15:16:01;;;;;;;68.20;27.33;;;;;;;;;;5011103;28;20049;-60
2021/12/23 15:18:38;;;;;;;60.28;25.52;;;;;;;;;;5008531;28;20471;-59
2021/12/23 15:21:10;;;;;;;61.22;28.20;;;;;;;;;;5013018;28;20050;-60
2021/12/23 15:23:53;;;;;;;62.70;27.92;;;;;;;;;;5012743;28;20052;-59
2021/12/23 15:26:21;;;;;;;68.78;28.58;;;;;;;;;;5011833;28;20081;-61
2021/12/23 15:29:04;;;;;;;67.95;27.92;;;;;;;;;;5008161;28;20054;-59